sensor_id;sensor_type;location;lat;lon;timestamp;P1;durP1;ratioP1;P2;durP2;ratioP2
37843;SDS011;63793;57.632;18.292;2023-10-31T00:00:52;16.00;;;6.80;;
37843;SDS011;63793;57.632;18.292;2023-10-31T00:03:19;13.05;;;4.07;;
37843;SDS011;63793;57.632;18.292;2023-10-31T00:05:46;12.18;;;4.65;;
37843;SDS011;63793;57.632;18.292;2023-10-31T00:08:13;15.25;;;5.03;;
37843;SDS011;63793;57.632;18.292;2023-10-31T00:10:40;11.52;;;4.05;;
37843;SDS011;63793;57.632;18.292;2023-10-31T00:13:11;8.45;;;4.07;;
37843;SDS011;63793;57.632;18.292;2023-10-31T00:15:38;10.70;;;4.72;;
37843;SDS011;63793;57.632;18.292;2023-10-31T00:18:05;8.55;;;4.15;;
37843;SDS011;63793;57.632;18.292;2023-10-31T00:20:32;14.27;;;4.32;;
37843;SDS011;63793;57.632;18.292;2023-10-31T00:22:59;14.07;;;4.65;;
37843;SDS011;63793;57.632;18.292;2023-10-31T00:25:26;15.73;;;6.38;;
37843;SDS011;63793;57.632;18.292;2023-10-31T00:27:53;11.77;;;3.85;;
37843;SDS011;63793;57.632;18.292;2023-10-31T00:30:20;13.07;;;5.07;;
37843;SDS011;63793;57.632;18.292;2023-10-31T00:32:47;13.13;;;4.30;;
37843;SDS011;63793;57.632;18.292;2023-10-31T00:35:14;8.38;;;4.70;;
37843;SDS011;63793;57.632;18.292;2023-10-31T00:37:41;15.73;;;5.43;;
37843;SDS011;63793;57.632;18.292;2023-10-31T00:40:08;12.65;;;5.20;;
37843;SDS011;63793;57.632;18.292;2023-10-31T00:45:07;22.75;;;7.65;;
37843;SDS011;63793;57.632;18.292;2023-10-31T00:47:35;14.70;;;6.00;;
37843;SDS011;63793;57.632;18.292;2023-10-31T00:50:02;9.23;;;6.03;;
37843;SDS011;63793;57.632;18.292;2023-10-31T00:52:30;18.55;;;8.07;;
37843;SDS011;63793;57.632;18.292;2023-10-31T00:54:56;11.85;;;6.57;;
37843;SDS011;63793;57.632;18.292;2023-10-31T00:57:23;10.93;;;6.72;;
37843;SDS011;63793;57.632;18.292;2023-10-31T00:59:50;13.25;;;5.68;;
37843;SDS011;63793;57.632;18.292;2023-10-31T01:02:17;20.05;;;6.75;;
37843;SDS011;63793;57.632;18.292;2023-10-31T01:04:44;8.00;;;6.00;;
37843;SDS011;63793;57.632;18.292;2023-10-31T01:07:11;12.52;;;5.82;;
37843;SDS011;63793;57.632;18.292;2023-10-31T01:09:38;10.48;;;5.82;;
37843;SDS011;63793;57.632;18.292;2023-10-31T01:12:05;13.38;;;6.28;;
37843;SDS011;63793;57.632;18.292;2023-10-31T01:14:32;18.10;;;6.97;;
37843;SDS011;63793;57.632;18.292;2023-10-31T01:17:00;12.10;;;6.65;;
37843;SDS011;63793;57.632;18.292;2023-10-31T01:19:26;18.17;;;7.40;;
37843;SDS011;63793;57.632;18.292;2023-10-31T01:21:54;18.00;;;7.72;;
37843;SDS011;63793;57.632;18.292;2023-10-31T01:24:21;13.52;;;7.82;;
37843;SDS011;63793;57.632;18.292;2023-10-31T01:26:49;10.05;;;6.10;;
37843;SDS011;63793;57.632;18.292;2023-10-31T01:29:16;15.77;;;6.22;;
37843;SDS011;63793;57.632;18.292;2023-10-31T01:31:43;8.82;;;5.13;;
37843;SDS011;63793;57.632;18.292;2023-10-31T01:34:24;15.82;;;7.18;;
37843;SDS011;63793;57.632;18.292;2023-10-31T01:36:51;13.82;;;5.68;;
37843;SDS011;63793;57.632;18.292;2023-10-31T01:39:18;13.88;;;6.55;;
37843;SDS011;63793;57.632;18.292;2023-10-31T01:41:45;10.70;;;5.75;;
37843;SDS011;63793;57.632;18.292;2023-10-31T01:44:12;10.40;;;5.28;;
37843;SDS011;63793;57.632;18.292;2023-10-31T01:46:39;10.52;;;6.00;;
37843;SDS011;63793;57.632;18.292;2023-10-31T01:49:06;15.10;;;5.97;;
37843;SDS011;63793;57.632;18.292;2023-10-31T01:51:34;9.93;;;5.30;;
37843;SDS011;63793;57.632;18.292;2023-10-31T01:54:01;16.33;;;6.72;;
37843;SDS011;63793;57.632;18.292;2023-10-31T01:56:28;13.18;;;5.15;;
37843;SDS011;63793;57.632;18.292;2023-10-31T01:58:55;13.70;;;5.68;;
37843;SDS011;63793;57.632;18.292;2023-10-31T02:01:22;14.65;;;6.38;;
37843;SDS011;63793;57.632;18.292;2023-10-31T02:03:49;8.63;;;5.72;;
37843;SDS011;63793;57.632;18.292;2023-10-31T02:06:16;15.00;;;6.85;;
37843;SDS011;63793;57.632;18.292;2023-10-31T02:08:43;12.07;;;5.10;;
37843;SDS011;63793;57.632;18.292;2023-10-31T02:11:10;18.48;;;6.13;;
37843;SDS011;63793;57.632;18.292;2023-10-31T02:13:38;17.38;;;7.13;;
37843;SDS011;63793;57.632;18.292;2023-10-31T02:16:06;15.70;;;6.50;;
37843;SDS011;63793;57.632;18.292;2023-10-31T02:18:33;12.30;;;5.65;;
37843;SDS011;63793;57.632;18.292;2023-10-31T02:21:00;13.63;;;7.53;;
37843;SDS011;63793;57.632;18.292;2023-10-31T02:23:27;12.80;;;7.05;;
37843;SDS011;63793;57.632;18.292;2023-10-31T02:25:54;16.15;;;6.68;;
37843;SDS011;63793;57.632;18.292;2023-10-31T02:28:21;16.02;;;7.32;;
37843;SDS011;63793;57.632;18.292;2023-10-31T02:30:49;15.77;;;7.68;;
37843;SDS011;63793;57.632;18.292;2023-10-31T02:33:16;15.02;;;6.93;;
37843;SDS011;63793;57.632;18.292;2023-10-31T02:35:44;15.98;;;7.35;;
37843;SDS011;63793;57.632;18.292;2023-10-31T02:38:11;11.23;;;7.18;;
37843;SDS011;63793;57.632;18.292;2023-10-31T02:40:38;15.93;;;9.52;;
37843;SDS011;63793;57.632;18.292;2023-10-31T02:43:05;15.23;;;8.02;;
37843;SDS011;63793;57.632;18.292;2023-10-31T02:45:32;15.35;;;8.52;;
37843;SDS011;63793;57.632;18.292;2023-10-31T02:47:59;15.38;;;9.20;;
37843;SDS011;63793;57.632;18.292;2023-10-31T02:50:26;19.75;;;9.68;;
37843;SDS011;63793;57.632;18.292;2023-10-31T02:52:53;16.25;;;7.75;;
37843;SDS011;63793;57.632;18.292;2023-10-31T02:55:20;14.27;;;8.55;;
37843;SDS011;63793;57.632;18.292;2023-10-31T02:57:47;18.90;;;8.88;;
37843;SDS011;63793;57.632;18.292;2023-10-31T03:00:14;16.33;;;9.15;;
37843;SDS011;63793;57.632;18.292;2023-10-31T03:02:41;19.33;;;10.25;;
37843;SDS011;63793;57.632;18.292;2023-10-31T03:05:08;20.48;;;10.02;;
37843;SDS011;63793;57.632;18.292;2023-10-31T03:07:35;17.52;;;10.35;;
37843;SDS011;63793;57.632;18.292;2023-10-31T03:10:02;23.83;;;10.07;;
37843;SDS011;63793;57.632;18.292;2023-10-31T03:12:29;15.40;;;10.10;;
37843;SDS011;63793;57.632;18.292;2023-10-31T03:14:56;19.83;;;9.88;;
37843;SDS011;63793;57.632;18.292;2023-10-31T03:17:23;16.42;;;9.27;;
37843;SDS011;63793;57.632;18.292;2023-10-31T03:19:52;15.55;;;9.25;;
37843;SDS011;63793;57.632;18.292;2023-10-31T03:22:19;21.58;;;10.95;;
37843;SDS011;63793;57.632;18.292;2023-10-31T03:24:45;15.70;;;10.00;;
37843;SDS011;63793;57.632;18.292;2023-10-31T03:27:12;18.38;;;9.68;;
37843;SDS011;63793;57.632;18.292;2023-10-31T03:29:39;16.35;;;10.57;;
37843;SDS011;63793;57.632;18.292;2023-10-31T03:32:06;24.85;;;10.52;;
37843;SDS011;63793;57.632;18.292;2023-10-31T03:34:33;19.40;;;10.88;;
37843;SDS011;63793;57.632;18.292;2023-10-31T03:37:00;14.00;;;9.65;;
37843;SDS011;63793;57.632;18.292;2023-10-31T03:39:27;19.83;;;12.00;;
37843;SDS011;63793;57.632;18.292;2023-10-31T03:41:55;17.88;;;10.85;;
37843;SDS011;63793;57.632;18.292;2023-10-31T03:44:23;18.77;;;12.10;;
37843;SDS011;63793;57.632;18.292;2023-10-31T03:46:50;18.70;;;12.52;;
37843;SDS011;63793;57.632;18.292;2023-10-31T03:49:17;20.70;;;10.85;;
37843;SDS011;63793;57.632;18.292;2023-10-31T03:51:45;20.05;;;11.70;;
37843;SDS011;63793;57.632;18.292;2023-10-31T03:54:11;22.25;;;11.05;;
37843;SDS011;63793;57.632;18.292;2023-10-31T03:56:42;21.35;;;11.98;;
37843;SDS011;63793;57.632;18.292;2023-10-31T03:59:10;23.40;;;12.25;;
37843;SDS011;63793;57.632;18.292;2023-10-31T04:01:36;17.90;;;12.73;;
37843;SDS011;63793;57.632;18.292;2023-10-31T04:04:04;19.67;;;11.95;;
37843;SDS011;63793;57.632;18.292;2023-10-31T04:06:31;20.27;;;14.85;;
37843;SDS011;63793;57.632;18.292;2023-10-31T04:08:58;19.38;;;12.68;;
37843;SDS011;63793;57.632;18.292;2023-10-31T04:11:25;18.52;;;12.73;;
37843;SDS011;63793;57.632;18.292;2023-10-31T04:13:52;25.83;;;15.43;;
37843;SDS011;63793;57.632;18.292;2023-10-31T04:16:19;24.75;;;15.48;;
37843;SDS011;63793;57.632;18.292;2023-10-31T04:18:46;22.85;;;14.93;;
37843;SDS011;63793;57.632;18.292;2023-10-31T04:21:13;20.50;;;14.35;;
37843;SDS011;63793;57.632;18.292;2023-10-31T04:23:39;26.50;;;16.25;;
37843;SDS011;63793;57.632;18.292;2023-10-31T04:26:06;22.52;;;15.48;;
37843;SDS011;63793;57.632;18.292;2023-10-31T04:28:33;24.90;;;15.77;;
37843;SDS011;63793;57.632;18.292;2023-10-31T04:31:00;25.42;;;15.77;;
37843;SDS011;63793;57.632;18.292;2023-10-31T04:33:27;20.05;;;14.40;;
37843;SDS011;63793;57.632;18.292;2023-10-31T04:35:54;25.77;;;16.08;;
37843;SDS011;63793;57.632;18.292;2023-10-31T04:38:21;27.60;;;17.73;;
37843;SDS011;63793;57.632;18.292;2023-10-31T04:40:48;24.10;;;16.00;;
37843;SDS011;63793;57.632;18.292;2023-10-31T04:43:14;19.92;;;14.27;;
37843;SDS011;63793;57.632;18.292;2023-10-31T04:45:41;24.00;;;16.13;;
37843;SDS011;63793;57.632;18.292;2023-10-31T04:48:08;20.17;;;13.63;;
37843;SDS011;63793;57.632;18.292;2023-10-31T04:50:35;25.67;;;14.77;;
37843;SDS011;63793;57.632;18.292;2023-10-31T04:53:02;21.13;;;12.98;;
37843;SDS011;63793;57.632;18.292;2023-10-31T04:55:29;21.90;;;11.75;;
37843;SDS011;63793;57.632;18.292;2023-10-31T04:57:56;16.35;;;12.45;;
37843;SDS011;63793;57.632;18.292;2023-10-31T05:00:23;24.27;;;12.48;;
37843;SDS011;63793;57.632;18.292;2023-10-31T05:02:50;17.23;;;13.52;;
37843;SDS011;63793;57.632;18.292;2023-10-31T05:05:17;19.55;;;11.57;;
37843;SDS011;63793;57.632;18.292;2023-10-31T05:07:44;13.13;;;11.18;;
37843;SDS011;63793;57.632;18.292;2023-10-31T05:10:11;19.40;;;11.77;;
37843;SDS011;63793;57.632;18.292;2023-10-31T05:12:38;13.57;;;11.95;;
37843;SDS011;63793;57.632;18.292;2023-10-31T05:15:08;16.85;;;11.48;;
37843;SDS011;63793;57.632;18.292;2023-10-31T05:17:35;12.35;;;10.05;;
37843;SDS011;63793;57.632;18.292;2023-10-31T05:20:02;12.68;;;9.85;;
37843;SDS011;63793;57.632;18.292;2023-10-31T05:22:29;12.10;;;9.05;;
37843;SDS011;63793;57.632;18.292;2023-10-31T05:24:56;11.50;;;9.27;;
37843;SDS011;63793;57.632;18.292;2023-10-31T05:27:24;12.18;;;9.57;;
37843;SDS011;63793;57.632;18.292;2023-10-31T05:29:50;11.20;;;9.23;;
37843;SDS011;63793;57.632;18.292;2023-10-31T05:32:17;12.93;;;9.55;;
37843;SDS011;63793;57.632;18.292;2023-10-31T05:34:44;16.52;;;9.45;;
37843;SDS011;63793;57.632;18.292;2023-10-31T05:37:11;13.35;;;9.15;;
37843;SDS011;63793;57.632;18.292;2023-10-31T05:39:38;12.02;;;9.15;;
37843;SDS011;63793;57.632;18.292;2023-10-31T05:42:05;14.48;;;10.02;;
37843;SDS011;63793;57.632;18.292;2023-10-31T05:44:32;12.23;;;10.00;;
37843;SDS011;63793;57.632;18.292;2023-10-31T05:46:58;19.02;;;9.60;;
37843;SDS011;63793;57.632;18.292;2023-10-31T05:49:26;12.48;;;10.93;;
37843;SDS011;63793;57.632;18.292;2023-10-31T05:51:53;15.45;;;10.15;;
37843;SDS011;63793;57.632;18.292;2023-10-31T05:54:20;13.65;;;10.82;;
37843;SDS011;63793;57.632;18.292;2023-10-31T05:56:47;17.65;;;10.75;;
37843;SDS011;63793;57.632;18.292;2023-10-31T05:59:14;13.05;;;10.40;;
37843;SDS011;63793;57.632;18.292;2023-10-31T06:01:41;14.68;;;10.30;;
37843;SDS011;63793;57.632;18.292;2023-10-31T06:04:08;16.10;;;11.27;;
37843;SDS011;63793;57.632;18.292;2023-10-31T06:06:37;23.50;;;12.73;;
37843;SDS011;63793;57.632;18.292;2023-10-31T06:09:05;15.27;;;11.43;;
37843;SDS011;63793;57.632;18.292;2023-10-31T06:11:32;18.80;;;12.98;;
37843;SDS011;63793;57.632;18.292;2023-10-31T06:13:59;15.02;;;11.25;;
37843;SDS011;63793;57.632;18.292;2023-10-31T06:16:26;15.02;;;11.65;;
37843;SDS011;63793;57.632;18.292;2023-10-31T06:18:53;15.15;;;11.63;;
37843;SDS011;63793;57.632;18.292;2023-10-31T06:21:20;18.00;;;12.18;;
37843;SDS011;63793;57.632;18.292;2023-10-31T06:23:47;17.48;;;13.50;;
37843;SDS011;63793;57.632;18.292;2023-10-31T06:26:14;15.88;;;12.65;;
37843;SDS011;63793;57.632;18.292;2023-10-31T06:28:41;15.93;;;11.07;;
37843;SDS011;63793;57.632;18.292;2023-10-31T06:31:23;17.42;;;12.40;;
37843;SDS011;63793;57.632;18.292;2023-10-31T06:33:50;19.38;;;12.57;;
37843;SDS011;63793;57.632;18.292;2023-10-31T06:36:17;15.35;;;11.73;;
37843;SDS011;63793;57.632;18.292;2023-10-31T06:38:43;19.98;;;12.35;;
37843;SDS011;63793;57.632;18.292;2023-10-31T06:41:10;22.63;;;13.98;;
37843;SDS011;63793;57.632;18.292;2023-10-31T06:43:38;22.50;;;14.25;;
37843;SDS011;63793;57.632;18.292;2023-10-31T06:46:05;22.25;;;16.10;;
37843;SDS011;63793;57.632;18.292;2023-10-31T06:48:33;23.98;;;16.65;;
37843;SDS011;63793;57.632;18.292;2023-10-31T06:51:00;23.27;;;16.33;;
37843;SDS011;63793;57.632;18.292;2023-10-31T06:53:27;20.92;;;15.88;;
37843;SDS011;63793;57.632;18.292;2023-10-31T06:55:54;26.98;;;18.65;;
37843;SDS011;63793;57.632;18.292;2023-10-31T06:58:21;27.38;;;19.05;;
37843;SDS011;63793;57.632;18.292;2023-10-31T07:00:47;24.20;;;17.65;;
37843;SDS011;63793;57.632;18.292;2023-10-31T07:03:14;24.63;;;17.35;;
37843;SDS011;63793;57.632;18.292;2023-10-31T07:05:42;24.73;;;19.15;;
37843;SDS011;63793;57.632;18.292;2023-10-31T07:08:09;27.02;;;19.13;;
37843;SDS011;63793;57.632;18.292;2023-10-31T07:10:36;27.70;;;17.67;;
37843;SDS011;63793;57.632;18.292;2023-10-31T07:13:03;26.42;;;17.77;;
37843;SDS011;63793;57.632;18.292;2023-10-31T07:15:30;26.45;;;19.33;;
37843;SDS011;63793;57.632;18.292;2023-10-31T07:17:57;31.35;;;19.98;;
37843;SDS011;63793;57.632;18.292;2023-10-31T07:20:24;25.05;;;17.90;;
37843;SDS011;63793;57.632;18.292;2023-10-31T07:22:51;25.95;;;19.98;;
37843;SDS011;63793;57.632;18.292;2023-10-31T07:25:18;36.35;;;19.77;;
37843;SDS011;63793;57.632;18.292;2023-10-31T07:27:45;32.28;;;20.08;;
37843;SDS011;63793;57.632;18.292;2023-10-31T07:30:12;27.75;;;20.13;;
37843;SDS011;63793;57.632;18.292;2023-10-31T07:32:39;29.63;;;20.10;;
37843;SDS011;63793;57.632;18.292;2023-10-31T07:35:06;30.35;;;19.52;;
37843;SDS011;63793;57.632;18.292;2023-10-31T07:37:33;23.48;;;17.05;;
37843;SDS011;63793;57.632;18.292;2023-10-31T07:40:02;32.90;;;20.73;;
37843;SDS011;63793;57.632;18.292;2023-10-31T07:42:30;27.65;;;19.48;;
37843;SDS011;63793;57.632;18.292;2023-10-31T07:44:57;28.20;;;19.67;;
37843;SDS011;63793;57.632;18.292;2023-10-31T07:47:24;28.10;;;18.63;;
37843;SDS011;63793;57.632;18.292;2023-10-31T07:49:51;29.52;;;21.55;;
37843;SDS011;63793;57.632;18.292;2023-10-31T07:52:20;29.65;;;19.90;;
37843;SDS011;63793;57.632;18.292;2023-10-31T07:54:46;29.85;;;21.27;;
37843;SDS011;63793;57.632;18.292;2023-10-31T07:57:13;31.63;;;21.02;;
37843;SDS011;63793;57.632;18.292;2023-10-31T07:59:40;28.90;;;18.23;;
37843;SDS011;63793;57.632;18.292;2023-10-31T08:02:07;25.23;;;17.70;;
37843;SDS011;63793;57.632;18.292;2023-10-31T08:04:34;26.25;;;19.35;;
37843;SDS011;63793;57.632;18.292;2023-10-31T08:07:01;27.15;;;18.05;;
37843;SDS011;63793;57.632;18.292;2023-10-31T08:09:28;27.73;;;21.08;;
37843;SDS011;63793;57.632;18.292;2023-10-31T08:11:55;24.95;;;17.88;;
37843;SDS011;63793;57.632;18.292;2023-10-31T08:14:22;24.10;;;17.42;;
37843;SDS011;63793;57.632;18.292;2023-10-31T08:16:51;24.73;;;17.67;;
37843;SDS011;63793;57.632;18.292;2023-10-31T08:19:18;22.23;;;15.25;;
37843;SDS011;63793;57.632;18.292;2023-10-31T08:21:45;18.55;;;15.02;;
37843;SDS011;63793;57.632;18.292;2023-10-31T08:24:12;17.58;;;15.27;;
37843;SDS011;63793;57.632;18.292;2023-10-31T08:26:39;19.35;;;15.45;;
37843;SDS011;63793;57.632;18.292;2023-10-31T08:29:06;17.80;;;13.88;;
37843;SDS011;63793;57.632;18.292;2023-10-31T08:31:33;19.90;;;14.73;;
37843;SDS011;63793;57.632;18.292;2023-10-31T08:34:00;20.67;;;14.15;;
37843;SDS011;63793;57.632;18.292;2023-10-31T08:36:29;14.57;;;12.13;;
37843;SDS011;63793;57.632;18.292;2023-10-31T08:38:56;14.98;;;11.05;;
37843;SDS011;63793;57.632;18.292;2023-10-31T08:41:22;14.50;;;11.88;;
37843;SDS011;63793;57.632;18.292;2023-10-31T08:43:49;17.80;;;12.68;;
37843;SDS011;63793;57.632;18.292;2023-10-31T08:46:16;15.00;;;12.50;;
37843;SDS011;63793;57.632;18.292;2023-10-31T08:48:43;17.10;;;11.93;;
37843;SDS011;63793;57.632;18.292;2023-10-31T08:51:10;14.90;;;10.55;;
37843;SDS011;63793;57.632;18.292;2023-10-31T08:53:37;13.63;;;10.68;;
37843;SDS011;63793;57.632;18.292;2023-10-31T08:56:04;12.02;;;10.32;;
37843;SDS011;63793;57.632;18.292;2023-10-31T08:58:31;14.35;;;8.82;;
37843;SDS011;63793;57.632;18.292;2023-10-31T09:00:58;10.70;;;9.52;;
37843;SDS011;63793;57.632;18.292;2023-10-31T09:03:25;10.25;;;8.27;;
37843;SDS011;63793;57.632;18.292;2023-10-31T09:05:52;13.07;;;8.07;;
37843;SDS011;63793;57.632;18.292;2023-10-31T09:08:19;13.32;;;9.23;;
37843;SDS011;63793;57.632;18.292;2023-10-31T09:10:46;8.15;;;7.28;;
37843;SDS011;63793;57.632;18.292;2023-10-31T09:13:13;8.77;;;7.88;;
37843;SDS011;63793;57.632;18.292;2023-10-31T09:15:40;9.98;;;5.72;;
37843;SDS011;63793;57.632;18.292;2023-10-31T09:18:07;6.10;;;5.35;;
37843;SDS011;63793;57.632;18.292;2023-10-31T09:20:34;7.30;;;6.63;;
37843;SDS011;63793;57.632;18.292;2023-10-31T09:23:02;9.90;;;5.75;;
37843;SDS011;63793;57.632;18.292;2023-10-31T09:25:29;5.95;;;5.35;;
37843;SDS011;63793;57.632;18.292;2023-10-31T09:27:57;7.78;;;6.05;;
37843;SDS011;63793;57.632;18.292;2023-10-31T09:30:25;7.97;;;5.63;;
37843;SDS011;63793;57.632;18.292;2023-10-31T09:32:53;6.05;;;4.78;;
37843;SDS011;63793;57.632;18.292;2023-10-31T09:35:20;6.05;;;5.40;;
37843;SDS011;63793;57.632;18.292;2023-10-31T09:37:47;4.85;;;4.35;;
37843;SDS011;63793;57.632;18.292;2023-10-31T09:40:15;8.93;;;5.45;;
37843;SDS011;63793;57.632;18.292;2023-10-31T09:42:43;8.55;;;5.57;;
37843;SDS011;63793;57.632;18.292;2023-10-31T09:45:12;7.97;;;4.95;;
37843;SDS011;63793;57.632;18.292;2023-10-31T09:47:39;7.78;;;3.88;;
37843;SDS011;63793;57.632;18.292;2023-10-31T09:50:08;6.30;;;4.72;;
37843;SDS011;63793;57.632;18.292;2023-10-31T09:52:36;5.78;;;4.95;;
37843;SDS011;63793;57.632;18.292;2023-10-31T09:55:03;5.93;;;4.32;;
37843;SDS011;63793;57.632;18.292;2023-10-31T09:57:31;6.53;;;4.35;;
37843;SDS011;63793;57.632;18.292;2023-10-31T09:59:58;5.60;;;4.53;;
37843;SDS011;63793;57.632;18.292;2023-10-31T10:02:25;8.63;;;4.43;;
37843;SDS011;63793;57.632;18.292;2023-10-31T10:04:52;4.70;;;3.90;;
37843;SDS011;63793;57.632;18.292;2023-10-31T10:07:20;6.90;;;4.95;;
37843;SDS011;63793;57.632;18.292;2023-10-31T10:09:47;4.47;;;3.05;;
37843;SDS011;63793;57.632;18.292;2023-10-31T10:12:14;5.93;;;3.63;;
37843;SDS011;63793;57.632;18.292;2023-10-31T10:14:44;4.85;;;3.35;;
37843;SDS011;63793;57.632;18.292;2023-10-31T10:17:22;3.53;;;2.40;;
37843;SDS011;63793;57.632;18.292;2023-10-31T10:20:09;6.38;;;3.25;;
37843;SDS011;63793;57.632;18.292;2023-10-31T10:22:41;5.43;;;2.70;;
37843;SDS011;63793;57.632;18.292;2023-10-31T10:25:10;3.63;;;2.53;;
37843;SDS011;63793;57.632;18.292;2023-10-31T10:27:40;8.73;;;2.03;;
37843;SDS011;63793;57.632;18.292;2023-10-31T10:30:08;4.57;;;2.20;;
37843;SDS011;63793;57.632;18.292;2023-10-31T10:32:36;6.18;;;2.30;;
37843;SDS011;63793;57.632;18.292;2023-10-31T10:35:03;4.68;;;2.10;;
37843;SDS011;63793;57.632;18.292;2023-10-31T10:37:30;4.97;;;1.45;;
37843;SDS011;63793;57.632;18.292;2023-10-31T10:39:57;2.72;;;2.22;;
37843;SDS011;63793;57.632;18.292;2023-10-31T10:42:31;4.50;;;1.98;;
37843;SDS011;63793;57.632;18.292;2023-10-31T10:45:03;3.50;;;3.20;;
37843;SDS011;63793;57.632;18.292;2023-10-31T10:47:31;4.78;;;1.95;;
37843;SDS011;63793;57.632;18.292;2023-10-31T10:50:00;4.22;;;2.08;;
37843;SDS011;63793;57.632;18.292;2023-10-31T10:52:35;4.05;;;2.15;;
37843;SDS011;63793;57.632;18.292;2023-10-31T10:55:13;4.60;;;2.10;;
37843;SDS011;63793;57.632;18.292;2023-10-31T11:00:27;5.85;;;2.20;;
37843;SDS011;63793;57.632;18.292;2023-10-31T11:02:55;4.45;;;2.72;;
37843;SDS011;63793;57.632;18.292;2023-10-31T11:05:23;4.57;;;1.60;;
37843;SDS011;63793;57.632;18.292;2023-10-31T11:07:51;6.80;;;2.17;;
37843;SDS011;63793;57.632;18.292;2023-10-31T11:10:19;2.58;;;2.05;;
37843;SDS011;63793;57.632;18.292;2023-10-31T11:12:45;5.18;;;2.05;;
37843;SDS011;63793;57.632;18.292;2023-10-31T11:15:14;3.15;;;2.15;;
37843;SDS011;63793;57.632;18.292;2023-10-31T11:17:43;5.13;;;2.08;;
37843;SDS011;63793;57.632;18.292;2023-10-31T11:20:12;8.02;;;2.38;;
37843;SDS011;63793;57.632;18.292;2023-10-31T11:22:42;5.10;;;2.47;;
37843;SDS011;63793;57.632;18.292;2023-10-31T11:25:15;6.10;;;4.17;;
37843;SDS011;63793;57.632;18.292;2023-10-31T11:27:58;7.65;;;4.43;;
37843;SDS011;63793;57.632;18.292;2023-10-31T11:30:40;6.63;;;4.07;;
37843;SDS011;63793;57.632;18.292;2023-10-31T11:33:13;6.85;;;3.42;;
37843;SDS011;63793;57.632;18.292;2023-10-31T11:35:41;6.07;;;4.15;;
37843;SDS011;63793;57.632;18.292;2023-10-31T11:38:11;3.50;;;2.85;;
37843;SDS011;63793;57.632;18.292;2023-10-31T11:40:58;5.30;;;2.72;;
37843;SDS011;63793;57.632;18.292;2023-10-31T11:43:36;8.45;;;2.55;;
37843;SDS011;63793;57.632;18.292;2023-10-31T11:46:18;4.05;;;2.22;;
37843;SDS011;63793;57.632;18.292;2023-10-31T11:48:47;5.60;;;2.25;;
37843;SDS011;63793;57.632;18.292;2023-10-31T11:53:44;2.47;;;1.80;;
37843;SDS011;63793;57.632;18.292;2023-10-31T11:56:18;5.10;;;1.95;;
37843;SDS011;63793;57.632;18.292;2023-10-31T11:58:54;4.70;;;2.22;;
37843;SDS011;63793;57.632;18.292;2023-10-31T12:01:22;2.10;;;1.58;;
37843;SDS011;63793;57.632;18.292;2023-10-31T12:03:49;5.40;;;1.70;;
37843;SDS011;63793;57.632;18.292;2023-10-31T12:06:16;5.35;;;2.25;;
37843;SDS011;63793;57.632;18.292;2023-10-31T12:08:45;3.72;;;1.45;;
37843;SDS011;63793;57.632;18.292;2023-10-31T12:11:14;3.95;;;1.50;;
37843;SDS011;63793;57.632;18.292;2023-10-31T12:13:51;2.15;;;1.08;;
37843;SDS011;63793;57.632;18.292;2023-10-31T12:16:18;3.20;;;1.75;;
37843;SDS011;63793;57.632;18.292;2023-10-31T12:18:45;4.22;;;1.70;;
37843;SDS011;63793;57.632;18.292;2023-10-31T12:24:06;6.60;;;1.65;;
37843;SDS011;63793;57.632;18.292;2023-10-31T12:26:35;4.75;;;1.65;;
37843;SDS011;63793;57.632;18.292;2023-10-31T12:29:06;4.38;;;1.40;;
37843;SDS011;63793;57.632;18.292;2023-10-31T12:34:14;0.80;;;0.80;;
37843;SDS011;63793;57.632;18.292;2023-10-31T12:36:42;3.42;;;1.35;;
37843;SDS011;63793;57.632;18.292;2023-10-31T12:39:10;6.32;;;1.05;;
37843;SDS011;63793;57.632;18.292;2023-10-31T12:41:39;1.02;;;0.77;;
37843;SDS011;63793;57.632;18.292;2023-10-31T12:44:07;5.22;;;1.23;;
37843;SDS011;63793;57.632;18.292;2023-10-31T12:46:40;5.80;;;1.10;;
37843;SDS011;63793;57.632;18.292;2023-10-31T12:49:25;2.97;;;1.50;;
37843;SDS011;63793;57.632;18.292;2023-10-31T12:51:54;3.92;;;1.23;;
37843;SDS011;63793;57.632;18.292;2023-10-31T12:57:03;1.73;;;1.25;;
37843;SDS011;63793;57.632;18.292;2023-10-31T12:59:34;8.15;;;1.70;;
37843;SDS011;63793;57.632;18.292;2023-10-31T13:02:06;2.95;;;2.42;;
37843;SDS011;63793;57.632;18.292;2023-10-31T13:04:34;5.07;;;2.22;;
37843;SDS011;63793;57.632;18.292;2023-10-31T13:07:05;4.47;;;1.52;;
37843;SDS011;63793;57.632;18.292;2023-10-31T13:09:33;2.28;;;1.15;;
37843;SDS011;63793;57.632;18.292;2023-10-31T13:12:09;4.97;;;1.50;;
37843;SDS011;63793;57.632;18.292;2023-10-31T13:14:37;5.57;;;1.30;;
37843;SDS011;63793;57.632;18.292;2023-10-31T13:17:05;3.92;;;2.08;;
37843;SDS011;63793;57.632;18.292;2023-10-31T13:19:32;3.75;;;1.70;;
37843;SDS011;63793;57.632;18.292;2023-10-31T13:21:59;1.90;;;1.02;;
37843;SDS011;63793;57.632;18.292;2023-10-31T13:24:26;4.10;;;1.55;;
37843;SDS011;63793;57.632;18.292;2023-10-31T13:26:53;6.63;;;1.23;;
37843;SDS011;63793;57.632;18.292;2023-10-31T13:29:20;7.75;;;1.75;;
37843;SDS011;63793;57.632;18.292;2023-10-31T13:31:48;1.88;;;1.30;;
37843;SDS011;63793;57.632;18.292;2023-10-31T13:34:15;3.75;;;1.33;;
37843;SDS011;63793;57.632;18.292;2023-10-31T13:36:42;5.85;;;1.70;;
37843;SDS011;63793;57.632;18.292;2023-10-31T13:39:10;6.65;;;2.63;;
37843;SDS011;63793;57.632;18.292;2023-10-31T13:41:37;2.20;;;2.00;;
37843;SDS011;63793;57.632;18.292;2023-10-31T13:44:05;2.63;;;1.90;;
37843;SDS011;63793;57.632;18.292;2023-10-31T13:46:32;3.30;;;2.22;;
37843;SDS011;63793;57.632;18.292;2023-10-31T13:48:59;5.93;;;2.70;;
37843;SDS011;63793;57.632;18.292;2023-10-31T13:51:25;3.70;;;1.98;;
37843;SDS011;63793;57.632;18.292;2023-10-31T13:53:52;4.60;;;2.50;;
37843;SDS011;63793;57.632;18.292;2023-10-31T13:56:19;2.67;;;2.25;;
37843;SDS011;63793;57.632;18.292;2023-10-31T13:58:46;4.20;;;2.67;;
37843;SDS011;63793;57.632;18.292;2023-10-31T14:01:14;4.22;;;2.45;;
37843;SDS011;63793;57.632;18.292;2023-10-31T14:03:41;4.47;;;2.10;;
37843;SDS011;63793;57.632;18.292;2023-10-31T14:06:11;2.17;;;1.88;;
37843;SDS011;63793;57.632;18.292;2023-10-31T14:08:39;3.97;;;2.65;;
37843;SDS011;63793;57.632;18.292;2023-10-31T14:11:06;4.72;;;3.10;;
37843;SDS011;63793;57.632;18.292;2023-10-31T14:13:37;2.75;;;1.90;;
37843;SDS011;63793;57.632;18.292;2023-10-31T14:16:06;2.28;;;1.83;;
37843;SDS011;63793;57.632;18.292;2023-10-31T14:18:33;1.75;;;1.65;;
37843;SDS011;63793;57.632;18.292;2023-10-31T14:21:00;3.15;;;1.50;;
37843;SDS011;63793;57.632;18.292;2023-10-31T14:23:27;6.95;;;1.83;;
37843;SDS011;63793;57.632;18.292;2023-10-31T14:25:54;3.30;;;1.50;;
37843;SDS011;63793;57.632;18.292;2023-10-31T14:28:21;4.18;;;1.20;;
37843;SDS011;63793;57.632;18.292;2023-10-31T14:30:47;6.72;;;2.67;;
37843;SDS011;63793;57.632;18.292;2023-10-31T14:33:14;2.22;;;1.60;;
37843;SDS011;63793;57.632;18.292;2023-10-31T14:35:41;5.30;;;1.80;;
37843;SDS011;63793;57.632;18.292;2023-10-31T14:38:08;4.82;;;2.40;;
37843;SDS011;63793;57.632;18.292;2023-10-31T14:40:35;4.35;;;1.95;;